Latest Weather Observations for Cooktown

IDQ60801

Issued at 7:05 pm EST Sunday 23 November 2014 (issued every 30 minutes, with the page automatically refreshed every 10 minutes)

About weather observations | Map of weather stations | Latest weather observations for QLD | Other Formats
Station Details ID: 031209 Name: COOKTOWN AIRPORT Lat: -15.45 Lon: 145.19 Height: 4.8 m
Data from the previous 72 hours. | See also: Recent months at Cooktown
Date/Time
EST
Temp
°C
App
Temp
°C
Dew
Point
Rel
Hum
%
Delta-T
°C
Wind Press
QNH
hPa
Press
MSL
hPa
Rain
since 9 am
mm
Dir
 
Spd
km/h
Gust
km/h
Spd
kts
Gust
kts
23/07:00pm 26.8 28.6 21.9 74 3.3 ESE 15 30 8 16 1011.8 - 0.0
23/06:30pm 27.1 27.9 21.4 71 3.8 ESE 19 26 10 14 1011.6 - 0.0
23/06:00pm 27.7 27.1 21.2 67 4.3 ESE 26 32 14 17 1011.3 1011.2 0.0
23/05:30pm 28.4 29.4 21.7 67 4.5 ESE 19 28 10 15 1011.1 - 0.0
23/05:00pm 29.1 29.5 21.7 64 5.0 ESE 22 37 12 20 1011.0 - 0.0
23/04:30pm 29.9 30.1 21.4 60 5.7 ESE 22 37 12 20 1011.0 - 0.0
23/04:00pm 29.8 28.8 21.3 60 5.7 E 28 37 15 20 1010.9 - 0.0
23/03:30pm 29.6 28.3 20.7 58 5.9 E 28 39 15 21 1011.0 - 0.0
23/03:00pm 29.6 28.6 20.5 58 6.0 E 26 41 14 22 1011.4 1011.3 0.0
23/02:30pm 31.3 29.6 20.6 53 7.1 E 30 41 16 22 1011.6 - 0.0
23/02:00pm 30.8 29.2 20.0 52 7.1 E 28 37 15 20 1011.9 - 0.0
23/01:30pm 31.4 30.2 20.9 53 7.0 E 28 39 15 21 1012.3 - 0.0
23/01:00pm 31.0 29.3 20.5 53 7.0 E 30 39 16 21 1012.7 - 0.0
23/12:30pm 31.1 29.8 20.6 53 7.0 ESE 28 39 15 21 1013.0 - 0.0
23/12:00pm 30.3 28.8 21.0 57 6.2 E 30 39 16 21 1013.2 1013.1 0.0
23/11:30am 30.9 30.6 20.3 53 7.0 ESE 22 32 12 17 1013.5 - 0.0
23/11:00am 30.2 30.7 21.2 58 6.0 ESE 20 28 11 15 1014.0 - 0.0
23/10:30am 28.8 29.7 21.5 64 4.9 SE 19 30 10 16 1014.3 - 0.0
23/10:00am 30.4 30.4 21.6 59 5.9 E 24 30 13 16 1014.4 - 0.0
23/09:30am 29.9 30.4 21.2 59 5.8 ESE 20 35 11 19 1014.5 - 0.0
23/09:00am 28.1 28.8 21.5 67 4.4 ESE 20 28 11 15 1014.4 1014.3 0.0
23/08:30am 28.4 29.2 21.7 67 4.5 E 20 28 11 15 1014.2 - 0.0
23/08:00am 28.4 29.2 21.4 66 4.7 E 19 28 10 15 1014.1 - 0.0
23/07:30am 27.9 28.7 21.3 67 4.4 E 19 26 10 14 1014.0 - 0.0
23/07:00am 27.7 28.5 21.4 68 4.2 ESE 19 26 10 14 1013.6 - 0.0
23/06:30am 26.5 28.1 21.5 74 3.3 ESE 15 26 8 14 1013.1 - 0.0
23/06:00am 25.9 27.5 21.5 76 2.9 ESE 15 20 8 11 1012.7 1012.5 0.0
23/05:30am 25.6 27.9 21.4 77 2.8 SE 11 20 6 11 1012.2 - 0.0
23/05:00am 25.1 27.7 21.2 79 2.6 SE 9 13 5 7 1012.0 - 0.0
23/04:30am 25.2 27.5 21.3 79 2.6 ESE 11 17 6 9 1011.8 - 0.0
23/04:00am 25.0 27.1 20.9 78 2.7 ESE 11 19 6 10 1011.7 - 0.0
23/03:30am 25.2 27.7 21.1 78 2.7 SE 9 13 5 7 1011.6 - 0.0
23/03:00am 25.5 28.0 21.1 76 2.9 SE 9 20 5 11 1011.5 1011.4 0.0
23/02:30am 25.7 27.5 21.2 76 3.0 SE 13 20 7 11 1011.5 - 0.0
23/02:00am 25.6 27.9 21.4 77 2.8 SE 11 15 6 8 1011.7 - 0.0
23/01:30am 25.5 27.9 21.6 79 2.6 ESE 11 17 6 9 1011.5 - 0.0
23/01:00am 25.7 28.2 21.8 79 2.6 ESE 11 17 6 9 1011.8 - 0.0
23/12:30am 25.8 28.5 22.2 80 2.4 ESE 11 19 6 10 1012.0 - 0.0
23/12:00am 26.1 27.4 22.4 80 2.5 ESE 19 30 10 16 1012.5 1012.4 0.0
 
Date/Time
EST
Temp
°C
App
Temp
°C
Dew
Point
Rel
Hum
%
Delta-T
°C
Wind Press
QNH
hPa
Press
MSL
hPa
Rain
since 9 am
mm
Dir
 
Spd
km/h
Gust
km/h
Spd
kts
Gust
kts
22/11:43pm 26.2 27.5 22.3 79 2.6 ESE 19 28 10 15 1012.7 - 0.0
22/11:30pm 26.2 28.4 22.6 80 2.4 ESE 15 22 8 12 1012.8 - 0.0
22/11:04pm 26.3 27.6 22.6 80 2.5 ESE 20 28 11 15 1013.1 - 0.0
22/11:00pm 26.4 27.9 22.7 80 2.5 ESE 19 28 10 15 1013.1 - 0.0
22/10:30pm 26.5 27.9 22.5 78 2.7 ESE 19 32 10 17 1013.2 - 0.0
22/10:00pm 26.5 27.7 22.2 77 2.9 ESE 19 28 10 15 1013.1 - 0.0
22/09:30pm 26.3 27.6 22.3 78 2.7 ESE 19 28 10 15 1012.8 - 0.0
22/09:00pm 26.3 27.9 22.1 77 2.8 ESE 17 24 9 13 1012.5 1012.3 0.0
22/08:30pm 26.2 28.6 22.2 78 2.7 ESE 13 20 7 11 1012.4 - 0.0
22/08:00pm 26.0 28.8 22.3 80 2.5 SE 11 17 6 9 1012.1 - 0.0
22/07:30pm 26.2 28.3 21.7 76 3.0 ESE 13 17 7 9 1011.7 - 0.0
22/07:00pm 26.4 28.0 22.1 77 2.9 ESE 17 24 9 13 1011.5 - 0.0
22/06:30pm 26.7 26.8 21.9 75 3.2 ESE 24 30 13 16 1011.2 - 0.0
22/06:00pm 27.5 27.8 22.3 73 3.5 E 24 33 13 18 1011.2 1011.1 0.0
22/05:30pm 28.1 27.6 21.4 67 4.5 E 26 32 14 17 1010.9 - 0.0
22/05:00pm 28.9 27.9 20.4 60 5.6 E 26 33 14 18 1010.9 - 0.0
22/04:30pm 29.6 29.0 20.5 58 6.0 E 24 35 13 19 1010.5 - 0.0
22/04:00pm 29.9 28.6 19.8 54 6.6 E 26 35 14 19 1010.5 - 0.0
22/03:30pm 29.7 28.7 20.5 57 6.1 ESE 26 33 14 18 1010.8 - 0.0
22/03:00pm 31.2 30.7 20.7 53 7.0 E 24 32 13 17 1011.1 1011.0 0.0
22/02:30pm 30.4 29.8 21.3 58 6.1 E 26 33 14 18 1011.3 - 0.0
22/02:00pm 31.2 30.8 21.0 54 6.8 ESE 24 35 13 19 1011.6 - 0.0
22/01:30pm 30.5 30.1 20.9 56 6.4 E 24 32 13 17 1011.7 - 0.0
22/01:00pm 30.1 29.0 20.3 55 6.5 E 26 33 14 18 1012.0 - 0.0
22/12:30pm 30.6 30.7 21.2 57 6.3 E 22 37 12 20 1012.2 - 0.0
22/12:00pm 28.8 28.6 21.3 64 5.0 E 24 33 13 18 1012.5 1012.4 0.0
22/11:30am 28.8 29.2 21.8 66 4.7 SE 22 28 12 15 1012.9 - 0.0
22/11:00am 29.0 29.8 21.7 64 4.9 SE 20 30 11 16 1013.2 - 0.0
22/10:30am 28.6 29.2 21.4 65 4.8 ESE 20 30 11 16 1013.7 - 0.0
22/10:00am 29.0 29.4 20.7 61 5.5 ESE 19 28 10 15 1013.7 - 0.0
22/09:30am 29.8 30.3 20.9 59 5.9 ESE 19 30 10 16 1013.7 - 0.0
22/09:00am 29.1 30.1 21.0 61 5.4 SSE 17 24 9 13 1013.9 1013.8 0.0
22/08:30am 28.2 29.2 21.1 65 4.7 ESE 17 24 9 13 1013.8 - 0.0
22/08:00am 28.2 29.6 21.0 65 4.8 SE 15 24 8 13 1013.6 - 0.0
22/07:30am 27.5 29.7 21.2 68 4.2 SSE 11 15 6 8 1013.5 - 0.0
22/07:00am 26.2 29.0 20.9 72 3.5 SSW 7 11 4 6 1013.3 - 0.0
22/06:30am 25.9 28.8 21.0 74 3.2 SE 7 11 4 6 1013.2 - 0.0
22/06:00am 25.3 27.7 20.9 76 2.9 SE 9 15 5 8 1012.7 - 0.0
22/05:30am 25.2 26.8 20.8 76 2.9 ESE 13 17 7 9 1012.1 - 0.0
22/05:00am 25.3 26.5 20.7 75 3.0 ESE 15 20 8 11 1011.9 - 0.0
22/04:30am 24.9 26.8 20.5 76 2.9 SE 11 15 6 8 1011.8 - 0.0
22/04:00am 24.7 26.0 20.2 76 2.9 ESE 13 20 7 11 1011.5 - 0.0
22/03:30am 24.2 26.0 20.4 79 2.5 ESE 11 13 6 7 1011.4 - 0.0
22/03:00am 24.5 26.7 20.4 78 2.7 SE 9 13 5 7 1011.3 1011.2 0.0
22/02:30am 24.7 26.4 20.2 76 2.9 ESE 11 17 6 9 1011.4 - 0.0
22/02:00am 24.8 26.2 20.3 76 2.9 ESE 13 19 7 10 1011.5 - 0.0
22/01:30am 25.1 26.2 20.5 75 3.0 ESE 15 22 8 12 1011.5 - 0.0
22/01:00am 25.2 27.3 20.9 77 2.8 SE 11 17 6 9 1012.0 - 0.0
22/12:30am 25.1 27.1 20.8 77 2.8 SE 11 19 6 10 1012.3 - 0.0
22/12:28am 25.1 27.1 20.8 77 2.8 SE 11 19 6 10 1012.3 - 0.0
22/12:00am 25.3 27.0 20.9 76 2.9 SE 13 20 7 11 1012.2 1012.2 0.0
 
Date/Time
EST
Temp
°C
App
Temp
°C
Dew
Point
Rel
Hum
%
Delta-T
°C
Wind Press
QNH
hPa
Press
MSL
hPa
Rain
since 9 am
mm
Dir
 
Spd
km/h
Gust
km/h
Spd
kts
Gust
kts
21/11:54pm 25.4 27.0 20.8 75 3.0 SE 13 20 7 11 1012.3 - 0.0
21/11:37pm 25.4 26.8 21.0 76 2.9 ESE 15 20 8 11 1012.4 - 0.0
21/11:30pm 25.5 26.8 20.9 75 3.0 ESE 15 20 8 11 1012.3 - 0.0
21/11:08pm 25.3 27.6 21.4 79 2.6 ESE 11 17 6 9 1012.7 - 0.0
21/11:00pm 25.4 26.9 21.3 78 2.7 ESE 15 20 8 11 1012.8 - 0.0
21/10:30pm 25.6 26.6 21.0 75 3.0 ESE 17 24 9 13 1013.0 - 0.0
21/10:19pm 25.4 26.5 21.2 77 2.8 E 17 20 9 11 1013.1 - 0.0
21/10:00pm 25.6 26.8 21.4 77 2.8 ESE 17 26 9 14 1013.2 - 0.0
21/09:49pm 25.6 26.8 21.4 77 2.8 ESE 17 24 9 13 1013.1 - 0.0
21/09:30pm 25.6 26.7 21.2 76 2.9 ESE 17 24 9 13 1013.0 - 0.0
21/09:00pm 25.7 26.3 21.0 75 3.1 ESE 19 28 10 15 1012.6 1012.4 0.0
21/08:30pm 25.9 26.5 21.1 75 3.2 E 19 24 10 13 1012.3 - 0.0
21/08:00pm 26.1 26.7 21.1 74 3.3 ESE 19 24 10 13 1011.9 - 0.0
21/07:30pm 26.2 27.1 20.9 72 3.5 ESE 17 22 9 12 1011.7 - 0.0
21/07:00pm 26.4 27.2 21.4 74 3.3 E 19 24 10 13 1011.5 - 0.0
21/06:30pm 26.5 27.2 21.5 74 3.3 E 20 30 11 16 1011.3 - 0.0
21/06:00pm 27.2 27.1 21.5 71 3.8 E 24 32 13 17 1011.2 1011.1 0.0
21/05:30pm 27.5 27.3 21.3 69 4.1 E 24 32 13 17 1011.1 - 0.0
21/05:18pm 27.5 27.0 21.5 70 4.0 E 26 33 14 18 1011.0 - 0.0
21/05:05pm 28.3 28.3 21.7 67 4.4 E 24 32 13 17 1010.9 - 0.0
21/05:00pm 28.3 28.3 21.7 67 4.4 E 24 33 13 18 1010.8 - 0.0
21/04:30pm 27.9 27.0 21.5 68 4.3 E 28 33 15 18 1010.8 - 0.0
21/04:00pm 29.9 29.0 21.4 60 5.7 E 28 39 15 21 1010.8 - 0.0
21/03:30pm 29.4 28.2 20.8 60 5.7 E 28 39 15 21 1011.0 - 0.0
21/03:00pm 30.4 29.5 21.5 59 6.0 E 28 35 15 19 1011.2 1011.2 0.0
21/02:30pm 30.0 28.4 20.7 57 6.2 E 30 39 16 21 1011.3 - 0.0
21/02:00pm 30.3 29.1 20.8 56 6.3 E 28 37 15 20 1011.8 - 0.0
21/01:30pm 30.1 29.0 21.0 58 6.1 E 28 39 15 21 1012.2 - 0.0
21/01:00pm 30.6 30.4 21.2 57 6.3 E 24 39 13 21 1012.4 - 0.0
21/12:30pm 30.2 29.0 20.9 57 6.2 E 28 35 15 19 1012.8 - 0.0
21/12:00pm 30.0 29.1 20.7 57 6.2 E 26 32 14 17 1013.1 1013.1 0.0
21/11:30am 30.0 29.9 20.8 57 6.1 E 22 30 12 16 1013.4 - 0.0
21/11:00am 29.9 29.4 20.7 57 6.1 E 24 33 13 18 1013.7 - 0.0
21/10:30am 29.7 29.5 21.2 60 5.7 E 24 39 13 21 1013.9 - 0.0
21/10:00am 28.9 28.0 20.7 61 5.4 E 26 33 14 18 1014.1 - 0.0
21/09:30am 29.9 29.3 20.5 57 6.2 E 24 33 13 18 1014.3 - 0.0
21/09:00am 29.3 28.3 20.5 59 5.8 E 26 35 14 19 1014.1 1014.0 0.0
21/08:30am 28.9 28.7 20.6 61 5.5 ESE 22 32 12 17 1014.1 - 0.0
21/08:00am 28.5 27.4 20.3 61 5.4 E 26 35 14 19 1013.8 - 0.0
21/07:30am 28.3 27.7 20.6 63 5.1 E 24 33 13 18 1013.6 - 0.0
21/07:00am 27.4 27.9 21.1 68 4.2 ESE 20 30 11 16 1013.4 - 0.0
21/06:30am 26.4 27.2 21.3 73 3.4 E 19 28 10 15 1013.1 - 0.0
21/06:11am 25.9 26.3 21.0 74 3.2 E 20 28 11 15 1012.8 - 0.0
21/06:00am 25.7 27.0 21.6 78 2.7 E 17 24 9 13 1012.7 1012.5 0.0
21/05:30am 25.7 26.6 21.5 77 2.8 E 19 24 10 13 1012.2 - 0.0
21/05:26am 25.5 26.3 21.3 77 2.8 E 19 24 10 13 1012.2 - 0.0
21/05:01am 25.7 26.6 21.5 77 2.8 E 19 26 10 14 1012.0 - 0.0
21/05:00am 25.7 26.6 21.5 77 2.8 E 19 26 10 14 1012.0 - 0.0
21/04:30am 25.7 26.6 21.6 78 2.7 E 19 30 10 16 1011.7 - 0.0
21/04:03am 25.6 26.7 21.9 80 2.5 E 19 24 10 13 1011.6 - 0.0
21/04:00am 25.6 27.0 21.9 80 2.5 E 17 24 9 13 1011.6 - 0.0
21/03:48am 25.7 27.3 22.1 80 2.4 E 17 28 9 15 1011.6 - 0.0
21/03:30am 25.4 26.5 22.0 81 2.3 E 19 24 10 13 1011.6 - 0.0
21/03:00am 25.5 27.1 22.1 81 2.3 E 17 22 9 12 1011.7 1011.7 0.0
21/02:30am 26.0 26.9 22.0 78 2.7 E 20 30 11 16 1012.1 - 0.0
21/02:10am 25.9 27.4 22.0 79 2.6 E 17 22 9 12 1012.2 - 0.0
21/02:00am 26.0 27.3 22.3 80 2.5 E 19 26 10 14 1012.3 - 0.0
21/01:30am 26.1 27.9 22.5 80 2.4 E 17 24 9 13 1012.3 - 0.0
21/01:29am 26.2 28.0 22.5 80 2.5 E 17 24 9 13 1012.3 - 0.0
21/01:00am 25.9 27.2 22.3 80 2.4 E 19 24 10 13 1012.5 - 0.0
21/12:39am 26.2 27.2 22.2 78 2.7 E 20 26 11 14 1012.8 - 0.0
21/12:30am 26.0 27.7 22.4 80 2.4 E 17 24 9 13 1012.9 - 0.0
21/12:16am 26.1 27.9 22.5 80 2.4 E 17 28 9 15 1012.9 - 0.0
21/12:00am 26.1 27.5 22.5 80 2.4 E 19 24 10 13 1013.0 1012.9 0.0
 
Date/Time
EST
Temp
°C
App
Temp
°C
Dew
Point
Rel
Hum
%
Delta-T
°C
Wind Press
QNH
hPa
Press
MSL
hPa
Rain
since 9 am
mm
Dir
 
Spd
km/h
Gust
km/h
Spd
kts
Gust
kts
20/11:30pm 26.1 27.5 22.5 80 2.4 E 19 26 10 14 1013.2 - 0.0
20/11:00pm 26.2 28.0 22.5 80 2.5 E 17 26 9 14 1013.5 - 0.0
20/10:30pm 26.3 27.1 22.4 79 2.6 E 22 30 12 16 1013.6 - 0.0
20/10:13pm 26.3 27.7 22.8 81 2.4 E 20 30 11 16 1013.5 - 0.0
20/10:00pm 26.4 27.8 22.9 81 2.4 E 20 30 11 16 1013.5 - 0.0
20/09:33pm 26.5 27.5 22.8 80 2.5 E 22 30 12 16 1013.3 - 0.0
20/09:30pm 26.5 27.4 22.7 79 2.6 E 22 30 12 16 1013.3 - 0.0
20/09:00pm 26.4 27.8 22.9 81 2.4 E 20 28 11 15 1013.0 1012.9 0.0
20/08:30pm 26.5 28.1 22.8 80 2.5 E 19 24 10 13 1013.0 - 0.0
20/08:00pm 26.4 28.4 22.9 81 2.4 E 17 24 9 13 1012.6 - 0.0
20/07:30pm 26.5 28.2 23.1 81 2.3 E 19 22 10 12 1012.4 - 0.0

Other Formats:

Comma delimited format used in spreadsheet applications
http://www.bom.gov.au/fwo/IDQ60801/IDQ60801.95283.axf

JavaScript Object Notation format (JSON) in row-major order
http://www.bom.gov.au/fwo/IDQ60801/IDQ60801.95283.json